La Gomera > ESTACION METEOROLÓGICA Alajeró

DATOS ACTUALES Online

Ultima actulizacion 15 minutos

14.2 ºC

Temperatura

82

Humedad (%)

922.13

Presión (mb)

0

Precipitación (mm)

3.5 W

Viento (Km/h)

DATOS DIARIOS

Temperatura últimas 24 horas (ºC)

Humedad últimas 24 horas (%)

Presión atmosférica últimas 24 horas (mb)

Precipitaciones últimas 23 horas (mm)

Viento últimas 24 horas (Km/h)

Hora Temperatura (°C) ºC Precipitación (mm) mm Presión (mb) mb Humedad (%) % Viento (Km/h) km/h
29 - 00:00 14.3 0 922 84 4 NW
29 - 01:00 13.4 0 922 91 10.1 N
29 - 02:00 13.9 0 922 88 10.4 SW
29 - 03:00 13.7 0 922 91 17.7 SW
29 - 04:00 13.7 0 921 90 7.1 O
29 - 05:00 13.6 0 921 89 7.9 SW
29 - 06:00 13.4 0 921 89 7.8 SW
29 - 07:00 13.5 0 922 89 7.2 SW
29 - 08:00 13.6 0 922 88 12.9 SW
29 - 09:00 13.8 0 923 86 15.3 SW
29 - 10:00 14.8 0 923 80 11.3 SW
29 - 11:00 16 0 922 73 20.2 S
29 - 12:00 16 0 922 75 16.3 S
29 - 13:00 17.2 0 922 68 18.7 S
29 - 14:00 17.8 0 922 66 17.2 S
29 - 15:00 16.6 0 922 70 19.5 S
29 - 16:00 16.9 0 922 72 19.3 S
29 - 17:00 17.5 0 921 65 25.4 SW
29 - 18:00 17.6 0 921 66 18.3 SW
29 - 19:00 15.7 0 921 77 18.6 O
29 - 20:00 15.3 0 921 81 16.9 SW
29 - 21:00 14.7 0 922 84 6.3 SO
29 - 22:00 14.4 0 921 77 13.4 NO
29 - 23:00 14.2 0 922 83 4.5 S
30 - 00:00 14.2 0 922 82 3.5 W
Apalmet utiliza cookies propias y de terceros para mejorar la usabilidad y la experiencia web. Política de cookies.